Time;durP1;ratioP1;P1;durP2;ratioP2;P2;SDS_P1;SDS_P2;PMS_P1;PMS_P2;Temp;Humidity;BMP_temperature;BMP_pressure;BME280_temperature;BME280_humidity;BME280_pressure;Samples;Min_cycle;Max_cycle;Signal;HPM_P1;HPM_P2
2021/05/25 00:00:13;;;;;;;1999.90;120.47;;;8.50;99.90;;;;;;6335951;22;20377;-94
2021/05/25 00:02:40;;;;;;;1999.90;102.90;;;8.50;99.90;;;;;;6314566;22;20476;-95
2021/05/25 00:05:10;;;;;;;1723.53;106.85;;;8.50;99.90;;;;;;6313463;22;20403;-94
2021/05/25 00:07:37;;;;;;;1612.63;99.68;;;8.40;99.90;;;;;;6313195;22;20467;-95
2021/05/25 00:10:06;;;;;;;879.95;65.70;;;8.40;99.90;;;;;;6313108;22;20460;-95
2021/05/25 00:12:33;;;;;;;1181.43;86.18;;;8.30;99.90;;;;;;6326929;22;20372;-94
2021/05/25 00:15:09;;;;;;;139.73;28.63;;;8.30;99.90;;;;;;6338068;22;20419;-96
2021/05/25 00:17:36;;;;;;;1398.30;97.97;;;8.20;99.90;;;;;;6336284;22;20404;-94
2021/05/25 00:20:08;;;;;;;50.20;21.42;;;8.20;99.90;;;;;;6335227;22;20359;-94
2021/05/25 00:22:36;;;;;;;254.60;36.15;;;8.20;99.90;;;;;;6320631;22;20377;-95
2021/05/25 00:25:05;;;;;;;217.97;34.83;;;8.20;99.90;;;;;;6313686;22;20380;-95
2021/05/25 00:27:32;;;;;;;632.90;50.03;;;8.20;99.90;;;;;;6313211;22;20464;-94
2021/05/25 00:30:00;;;;;;;930.30;73.70;;;8.20;99.90;;;;;;6314029;22;20387;-96
2021/05/25 00:32:31;;;;;;;1322.22;95.60;;;8.20;99.90;;;;;;6314328;22;20946;-94
2021/05/25 00:34:59;;;;;;;151.10;33.78;;;8.10;99.90;;;;;;6314070;22;20434;-95
2021/05/25 00:37:26;;;;;;;341.05;41.90;;;8.10;99.90;;;;;;6314815;22;20460;-95
2021/05/25 00:39:53;;;;;;;1073.27;81.40;;;8.10;99.90;;;;;;6313512;22;20389;-93
2021/05/25 00:42:20;;;;;;;845.33;70.80;;;8.10;99.90;;;;;;6314044;22;20387;-95
2021/05/25 00:44:48;;;;;;;346.40;45.63;;;8.10;99.90;;;;;;6315821;22;20540;-95
2021/05/25 00:47:33;;;;;;;1874.73;129.83;;;8.10;99.90;;;;;;6290760;22;20438;-95
2021/05/25 00:50:11;;;;;;;62.43;33.20;;;8.10;99.90;;;;;;6314572;22;20380;-94
2021/05/25 00:52:49;;;;;;;73.53;35.17;;;8.00;99.90;;;;;;6315611;22;20381;-96
2021/05/25 00:55:20;;;;;;;91.20;35.27;;;8.00;99.90;;;;;;6314329;22;20455;-95
2021/05/25 00:57:49;;;;;;;217.65;45.25;;;8.00;99.90;;;;;;6314099;22;20456;-95
2021/05/25 01:00:20;;;;;;;234.75;45.78;;;8.00;99.90;;;;;;6313922;22;20408;-96
2021/05/25 01:02:54;;;;;;;457.70;59.42;;;8.00;99.90;;;;;;6313611;22;20377;-95
2021/05/25 01:05:22;;;;;;;189.40;44.00;;;8.00;99.90;;;;;;6314321;22;20408;-95
2021/05/25 01:07:50;;;;;;;139.38;41.42;;;7.90;99.90;;;;;;6313787;22;20865;-96
2021/05/25 01:10:29;;;;;;;110.47;37.95;;;7.90;99.90;;;;;;6340728;22;20373;-96
2021/05/25 01:13:04;;;;;;;156.63;45.72;;;7.90;99.90;;;;;;6314198;22;20388;-96
2021/05/25 01:15:32;;;;;;;109.15;41.70;;;7.90;99.90;;;;;;6315235;22;20747;-96
2021/05/25 01:18:04;;;;;;;837.97;82.43;;;7.90;99.90;;;;;;6315661;22;20381;-96
2021/05/25 01:20:34;;;;;;;80.35;36.00;;;7.90;99.90;;;;;;6325237;22;20390;-95
2021/05/25 01:23:10;;;;;;;157.77;43.88;;;7.90;99.90;;;;;;6340155;22;20406;-96
2021/05/25 01:25:45;;;;;;;1209.10;101.53;;;7.80;99.90;;;;;;6339341;22;20408;-96
2021/05/25 01:28:20;;;;;;;95.37;41.23;;;7.90;99.90;;;;;;6330190;22;20381;-96
2021/05/25 01:30:53;;;;;;;184.10;46.05;;;7.90;99.90;;;;;;6323068;22;20438;-96
2021/05/25 01:33:25;;;;;;;1049.72;86.20;;;7.80;99.90;;;;;;6314104;22;20385;-95
2021/05/25 01:35:53;;;;;;;445.10;63.10;;;7.80;99.90;;;;;;6313199;22;20403;-96
2021/05/25 01:38:23;;;;;;;125.85;42.95;;;7.90;99.90;;;;;;6313358;22;20514;-95
2021/05/25 01:40:53;;;;;;;86.50;36.40;;;7.80;99.90;;;;;;6313321;22;20388;-94
2021/05/25 01:43:21;;;;;;;508.50;63.45;;;7.80;99.90;;;;;;6312408;22;20405;-94
2021/05/25 01:45:49;;;;;;;356.63;51.10;;;7.80;99.90;;;;;;6313521;22;20467;-96
2021/05/25 01:48:16;;;;;;;340.63;52.47;;;7.80;99.90;;;;;;6313630;22;20395;-95
2021/05/25 01:50:44;;;;;;;223.57;49.00;;;7.80;99.90;;;;;;6332082;22;20466;-94
2021/05/25 01:53:21;;;;;;;280.33;53.80;;;7.80;99.90;;;;;;6339558;22;20388;-95
2021/05/25 01:55:52;;;;;;;95.45;40.90;;;7.80;99.90;;;;;;6316922;22;20991;-95
2021/05/25 01:58:33;;;;;;;85.13;37.25;;;7.70;99.90;;;;;;6313368;22;20932;-96
2021/05/25 02:01:09;;;;;;;77.72;37.28;;;7.80;99.90;;;;;;6313603;22;20873;-94
2021/05/25 02:03:40;;;;;;;62.80;30.25;;;7.70;99.90;;;;;;6313807;22;20693;-95
2021/05/25 02:06:09;;;;;;;65.57;32.28;;;7.70;99.90;;;;;;6312869;22;20876;-95
2021/05/25 02:08:37;;;;;;;60.63;30.70;;;7.70;99.90;;;;;;6312489;22;20380;-95
2021/05/25 02:11:07;;;;;;;68.15;33.30;;;7.70;99.90;;;;;;6312567;22;20385;-96
2021/05/25 02:13:43;;;;;;;59.35;29.00;;;7.70;99.90;;;;;;6313066;22;20456;-95
2021/05/25 02:16:13;;;;;;;45.45;21.85;;;7.70;99.90;;;;;;6312987;22;20384;-93
2021/05/25 02:18:46;;;;;;;34.08;16.73;;;7.70;99.90;;;;;;6311902;22;20398;-94
2021/05/25 02:21:35;;;;;;;36.17;20.45;;;7.70;99.90;;;;;;6311999;22;20458;-93
2021/05/25 02:24:02;;;;;;;37.38;20.00;;;7.70;99.90;;;;;;6310983;22;20648;-95
2021/05/25 02:26:29;;;;;;;28.15;15.82;;;7.70;99.90;;;;;;6312240;22;20385;-94
2021/05/25 02:28:56;;;;;;;34.65;21.58;;;7.70;99.90;;;;;;6312249;22;20467;-94
2021/05/25 02:31:24;;;;;;;32.22;18.48;;;7.70;99.90;;;;;;6313407;22;20392;-96
2021/05/25 02:33:51;;;;;;;28.00;17.13;;;7.70;99.90;;;;;;6312899;22;20465;-95
2021/05/25 02:36:18;;;;;;;33.20;20.52;;;7.60;99.90;;;;;;6313026;22;20761;-95
2021/05/25 02:38:45;;;;;;;35.88;20.85;;;7.70;99.90;;;;;;6313248;22;20392;-95
2021/05/25 02:41:15;;;;;;;36.67;20.45;;;7.60;99.90;;;;;;6312578;22;20377;-94
2021/05/25 02:43:42;;;;;;;34.88;19.85;;;7.60;99.90;;;;;;6313977;22;20376;-94
2021/05/25 02:46:10;;;;;;;44.63;23.38;;;7.60;99.90;;;;;;6312354;22;20464;-95
2021/05/25 02:48:37;;;;;;;43.83;24.17;;;7.60;99.90;;;;;;6313378;22;20666;-94
2021/05/25 02:51:04;;;;;;;42.58;24.67;;;7.60;99.90;;;;;;6313233;22;20369;-95
2021/05/25 02:53:31;;;;;;;182.18;32.67;;;7.60;99.90;;;;;;6312593;22;20480;-95
2021/05/25 02:55:58;;;;;;;80.68;26.63;;;7.60;99.90;;;;;;6312484;22;20468;-96
2021/05/25 02:58:31;;;;;;;114.30;28.98;;;7.60;99.90;;;;;;6315987;22;20467;-94
2021/05/25 03:00:59;;;;;;;399.40;46.20;;;7.60;99.90;;;;;;6317057;22;20407;-96
2021/05/25 03:03:32;;;;;;;1127.80;83.15;;;7.60;99.90;;;;;;6315612;22;20385;-96
2021/05/25 03:05:59;;;;;;;1865.75;129.25;;;7.70;99.90;;;;;;6315568;22;20384;-95
2021/05/25 03:08:27;;;;;;;1317.57;74.95;;;7.60;99.90;;;;;;6314505;22;20383;-95
2021/05/25 03:10:54;;;;;;;19.17;10.73;;;7.60;99.90;;;;;;6315767;22;20387;-95
2021/05/25 03:13:21;;;;;;;32.57;17.00;;;7.50;99.90;;;;;;6319126;22;20383;-95
2021/05/25 03:15:50;;;;;;;7.63;3.77;;;7.40;99.90;;;;;;6323872;22;20448;-93
2021/05/25 03:18:18;;;;;;;4.77;3.13;;;7.10;99.90;;;;;;6340141;22;20407;-94
2021/05/25 03:20:48;;;;;;;7.80;3.50;;;6.90;99.90;;;;;;6335091;22;20399;-93
2021/05/25 03:23:16;;;;;;;4.50;2.50;;;6.60;99.90;;;;;;6331639;22;20373;-93
2021/05/25 03:25:44;;;;;;;1.60;1.30;;;6.50;99.90;;;;;;6320026;22;20423;-94
2021/05/25 03:28:11;;;;;;;3.80;2.67;;;6.30;99.90;;;;;;6316123;22;20400;-92
2021/05/25 03:30:40;;;;;;;5.00;1.67;;;6.20;99.90;;;;;;6315373;22;20419;-94
2021/05/25 03:33:07;;;;;;;6.57;2.03;;;6.10;99.90;;;;;;6315606;22;20437;-94
2021/05/25 03:35:38;;;;;;;3.38;1.73;;;6.00;99.90;;;;;;6317751;22;20388;-93
2021/05/25 03:38:05;;;;;;;3.95;2.10;;;6.00;99.90;;;;;;6317566;22;20410;-96
2021/05/25 03:40:34;;;;;;;3.45;2.13;;;6.00;99.90;;;;;;6341735;22;20484;-94
2021/05/25 03:43:01;;;;;;;3.72;1.90;;;5.90;99.90;;;;;;6313869;22;20365;-93
2021/05/25 03:45:28;;;;;;;3.75;1.83;;;5.90;99.90;;;;;;6338262;22;20500;-93
2021/05/25 03:47:56;;;;;;;4.20;1.38;;;5.90;99.90;;;;;;6336762;22;20843;-93
2021/05/25 03:50:23;;;;;;;5.83;2.00;;;5.90;99.90;;;;;;6315144;22;20365;-93
2021/05/25 03:52:54;;;;;;;3.63;1.58;;;5.80;99.90;;;;;;6315653;22;20468;-94
2021/05/25 04:00:41;;;;;;;3.47;1.73;;;5.80;99.90;;;;;;6343431;22;20424;-93
2021/05/25 04:03:08;;;;;;;4.95;1.85;;;5.80;99.90;;;;;;6316666;22;20383;-94
2021/05/25 04:05:36;;;;;;;3.40;1.70;;;5.80;99.90;;;;;;6314836;22;20412;-93
2021/05/25 04:08:03;;;;;;;4.50;1.88;;;5.90;99.90;;;;;;6313968;22;20377;-93
2021/05/25 04:10:30;;;;;;;4.53;2.20;;;5.80;99.90;;;;;;6314608;22;20377;-94
2021/05/25 04:12:58;;;;;;;3.40;1.90;;;5.80;99.90;;;;;;6314107;22;20387;-93
2021/05/25 04:15:25;;;;;;;6.88;2.00;;;5.80;99.90;;;;;;6314053;22;20861;-95
2021/05/25 04:17:53;;;;;;;4.57;2.05;;;5.80;99.90;;;;;;6314564;22;20392;-94
2021/05/25 04:20:24;;;;;;;2.42;1.60;;;5.80;99.90;;;;;;6315714;22;20847;-94
2021/05/25 04:22:56;;;;;;;4.80;1.60;;;5.80;99.90;;;;;;6338981;22;20404;-94
2021/05/25 04:25:23;;;;;;;3.95;1.70;;;5.80;99.90;;;;;;6341007;22;20387;-95
2021/05/25 04:27:51;;;;;;;2.55;1.70;;;5.80;99.90;;;;;;6334047;22;20366;-93
2021/05/25 04:30:24;;;;;;;5.82;1.90;;;5.90;99.90;;;;;;6330260;22;20381;-94
2021/05/25 04:32:52;;;;;;;3.67;1.98;;;5.80;99.90;;;;;;6316096;22;20472;-94
2021/05/25 04:35:19;;;;;;;3.93;2.00;;;5.80;99.90;;;;;;6313897;22;20388;-94
2021/05/25 04:37:47;;;;;;;5.68;1.88;;;5.90;99.90;;;;;;6313491;22;20384;-96
2021/05/25 04:40:14;;;;;;;3.30;1.77;;;5.90;99.90;;;;;;6312984;22;20393;-95
2021/05/25 04:42:41;;;;;;;9.02;1.98;;;5.90;99.90;;;;;;6313758;22;20558;-95
2021/05/25 04:45:09;;;;;;;5.20;2.00;;;5.90;99.90;;;;;;6314068;22;20396;-93
2021/05/25 04:47:37;;;;;;;3.13;1.70;;;5.90;99.90;;;;;;6314010;22;20678;-94
2021/05/25 04:50:06;;;;;;;4.97;2.60;;;5.90;99.90;;;;;;6313273;22;20853;-95
2021/05/25 04:52:34;;;;;;;5.10;2.80;;;5.90;99.90;;;;;;6315834;22;20373;-94
2021/05/25 04:55:08;;;;;;;5.03;2.50;;;5.90;99.90;;;;;;6313783;22;20393;-93
2021/05/25 04:57:37;;;;;;;4.13;2.15;;;5.90;99.90;;;;;;6313121;22;20913;-93
2021/05/25 05:00:12;;;;;;;4.57;2.50;;;5.90;99.90;;;;;;6313663;22;20403;-93
2021/05/25 05:02:40;;;;;;;4.05;2.58;;;5.90;99.90;;;;;;6314019;22;20448;-94
2021/05/25 05:05:09;;;;;;;6.38;2.70;;;5.90;99.90;;;;;;6314333;22;20381;-95
2021/05/25 05:07:39;;;;;;;6.18;2.50;;;6.00;99.90;;;;;;6316774;22;20404;-95
2021/05/25 05:10:10;;;;;;;5.95;2.60;;;6.00;99.90;;;;;;6335246;22;20388;-95
2021/05/25 05:12:37;;;;;;;4.68;2.40;;;6.00;99.90;;;;;;6337681;22;20369;-96
2021/05/25 05:15:12;;;;;;;4.43;2.25;;;6.00;99.90;;;;;;6336320;22;20868;-96
2021/05/25 05:21:20;;;;;;;8.10;2.30;;;6.10;99.90;;;;;;6345449;22;20393;-96
2021/05/25 05:23:48;;;;;;;4.88;2.08;;;6.10;99.90;;;;;;6323785;22;20443;-96
2021/05/25 05:26:28;;;;;;;6.80;2.10;;;6.10;99.90;;;;;;6324629;22;20371;-96
2021/05/25 05:29:19;;;;;;;4.47;2.10;;;6.20;99.90;;;;;;6299834;22;20387;-96
2021/05/25 05:32:04;;;;;;;5.82;2.30;;;6.20;99.90;;;;;;6329173;22;20385;-96
2021/05/25 05:35:14;;;;;;;4.93;2.13;;;6.10;99.90;;;;;;6281115;22;20377;-96
2021/05/25 05:37:41;;;;;;;2.88;2.15;;;6.20;99.90;;;;;;6325316;22;20411;-96
2021/05/25 05:40:17;;;;;;;3.45;2.00;;;6.20;99.90;;;;;;6340432;22;20403;-96
2021/05/25 05:43:24;;;;;;;6.88;2.60;;;6.20;99.90;;;;;;6337477;22;20849;-96
2021/05/25 05:46:10;;;;;;;5.50;2.20;;;6.30;99.90;;;;;;6331300;22;20428;-96
2021/05/25 05:49:18;;;;;;;5.97;2.20;;;6.30;99.90;;;;;;6327026;22;20472;-96
2021/05/25 05:55:19;;;;;;;;;;;;;;;;;;;;;
2021/05/25 06:00:52;;;;;;;6.63;2.37;;;6.30;99.90;;;;;;6345888;22;20729;-96
2021/05/25 06:06:33;;;;;;;4.47;2.10;;;6.30;99.90;;;;;;6343589;22;20380;-95
2021/05/25 06:09:38;;;;;;;5.15;2.20;;;6.40;99.90;;;;;;6321623;22;20383;-96
2021/05/25 06:15:22;;;;;;;3.10;1.67;;;6.50;99.90;;;;;;6282050;22;20386;-96
2021/05/25 06:21:02;;;;;;;5.57;2.77;;;6.60;99.90;;;;;;6272334;22;20381;31
2021/05/25 06:24:13;;;;;;;3.33;1.77;;;6.70;99.90;;;;;;6270868;22;20418;-96
2021/05/25 06:26:58;;;;;;;3.92;1.95;;;6.70;99.90;;;;;;6329677;22;20902;-96
2021/05/25 06:29:49;;;;;;;5.85;2.15;;;6.80;99.90;;;;;;6327556;22;20376;-96
2021/05/25 06:33:03;;;;;;;5.47;2.10;;;6.80;99.90;;;;;;6325531;22;20377;-96
2021/05/25 06:36:04;;;;;;;5.50;2.30;;;6.80;99.90;;;;;;6324912;22;20385;-95
2021/05/25 06:38:45;;;;;;;6.10;2.13;;;6.80;99.90;;;;;;6218544;23;20900;-94
2021/05/25 06:41:12;;;;;;;4.47;1.90;;;6.80;99.90;;;;;;6303942;22;20843;-93
2021/05/25 06:43:39;;;;;;;6.60;2.10;;;6.90;99.90;;;;;;6312800;22;20754;-94
2021/05/25 06:46:09;;;;;;;4.72;2.00;;;6.90;99.90;;;;;;6313947;22;20448;-95
2021/05/25 06:48:38;;;;;;;5.13;2.30;;;7.00;99.90;;;;;;6312953;22;20411;-94
2021/05/25 06:51:07;;;;;;;3.80;2.30;;;6.90;99.90;;;;;;6312671;22;20381;-93
2021/05/25 06:53:35;;;;;;;4.47;3.10;;;6.80;99.90;;;;;;6315740;22;20464;-95
2021/05/25 06:56:03;;;;;;;6.82;3.30;;;6.80;99.90;;;;;;6313087;22;20451;-93
2021/05/25 06:58:32;;;;;;;4.07;2.70;;;6.70;99.90;;;;;;6314608;22;20385;-93
2021/05/25 07:01:00;;;;;;;4.10;2.90;;;6.80;99.90;;;;;;6315905;22;20428;-93
2021/05/25 07:03:30;;;;;;;5.40;3.30;;;6.80;99.90;;;;;;6318315;22;20438;-93
2021/05/25 07:06:00;;;;;;;5.00;3.15;;;6.90;99.90;;;;;;6314768;22;20491;-93
2021/05/25 07:08:27;;;;;;;4.53;2.63;;;6.90;99.90;;;;;;6317299;22;20449;-94
2021/05/25 07:10:55;;;;;;;6.22;2.92;;;6.90;99.90;;;;;;6330243;22;20368;-93
2021/05/25 07:13:22;;;;;;;3.95;2.50;;;6.90;99.90;;;;;;6312274;22;20468;-92
2021/05/25 07:15:50;;;;;;;6.47;2.38;;;7.00;99.90;;;;;;6329165;22;20841;-92
2021/05/25 07:18:18;;;;;;;4.18;2.22;;;7.00;99.90;;;;;;6326129;22;20400;-91
2021/05/25 07:20:48;;;;;;;3.38;2.15;;;7.00;99.90;;;;;;6317430;22;20397;-92
2021/05/25 07:23:16;;;;;;;5.18;2.03;;;7.00;99.90;;;;;;6312709;22;20849;-92
2021/05/25 07:25:44;;;;;;;5.80;2.03;;;6.90;99.90;;;;;;6307397;22;20436;-92
2021/05/25 07:28:11;;;;;;;3.72;1.80;;;7.00;99.90;;;;;;6307842;22;20379;-91
2021/05/25 07:30:49;;;;;;;7.38;1.40;;;7.00;99.90;;;;;;6312856;22;20370;-91
2021/05/25 07:33:20;;;;;;;2.83;1.30;;;7.10;99.90;;;;;;6324113;22;20363;-92
2021/05/25 07:35:47;;;;;;;3.55;1.30;;;7.10;99.90;;;;;;6321765;22;20386;-92
2021/05/25 07:38:14;;;;;;;3.97;1.17;;;7.20;99.90;;;;;;6308962;22;20362;-92
2021/05/25 07:40:41;;;;;;;4.57;1.25;;;7.30;99.90;;;;;;6308560;22;20386;-93
2021/05/25 07:43:09;;;;;;;4.53;1.20;;;7.30;99.90;;;;;;6307478;22;20378;-91
2021/05/25 07:45:37;;;;;;;1.58;0.90;;;7.20;99.90;;;;;;6285736;22;20409;-91
2021/05/25 07:48:05;;;;;;;4.93;1.15;;;7.30;99.90;;;;;;6311252;22;20383;-93
2021/05/25 07:50:33;;;;;;;3.65;1.08;;;7.30;99.90;;;;;;6310428;22;20386;-93
2021/05/25 07:53:00;;;;;;;3.67;1.20;;;7.30;99.90;;;;;;6308290;22;20843;-92
2021/05/25 07:55:30;;;;;;;4.05;1.50;;;7.30;99.90;;;;;;6308743;22;20726;-93
2021/05/25 07:57:59;;;;;;;3.03;1.02;;;7.30;99.90;;;;;;6307819;22;20436;-92
2021/05/25 08:00:27;;;;;;;3.33;1.02;;;7.20;99.90;;;;;;6308768;22;20386;-93
2021/05/25 08:02:58;;;;;;;4.38;1.33;;;7.20;99.90;;;;;;6309096;22;20910;-93
2021/05/25 08:05:28;;;;;;;3.17;0.90;;;7.20;99.90;;;;;;6311556;22;20462;-95
2021/05/25 08:07:56;;;;;;;4.30;1.10;;;7.30;99.90;;;;;;6286163;22;20394;-93
2021/05/25 08:10:25;;;;;;;4.63;1.00;;;7.30;99.90;;;;;;6309476;22;20394;-95
2021/05/25 08:12:55;;;;;;;3.13;0.80;;;7.40;99.90;;;;;;6309179;22;20708;-93
2021/05/25 08:21:41;;;;;;;6.93;1.30;;;7.40;99.90;;;;;;6311322;22;20395;-95
2021/05/25 08:24:12;;;;;;;5.50;1.20;;;7.30;99.90;;;;;;6311340;22;20390;-95
2021/05/25 08:26:53;;;;;;;;;;;;;;;;;;;;;
2021/05/25 08:30:04;;;;;;;3.47;1.08;;;7.60;99.90;;;;;;6313264;22;20706;-95
2021/05/25 08:32:45;;;;;;;3.80;0.90;;;7.70;99.90;;;;;;6324093;22;20378;-95
2021/05/25 08:35:34;;;;;;;3.97;1.40;;;7.60;99.90;;;;;;6314494;22;20409;-93
2021/05/25 08:38:42;;;;;;;3.75;0.98;;;7.50;99.90;;;;;;6249249;22;20361;-95
2021/05/25 08:41:26;;;;;;;5.15;1.20;;;7.60;99.90;;;;;;6277019;22;20399;-94
2021/05/25 08:44:42;;;;;;;2.90;0.95;;;7.70;99.90;;;;;;6260686;22;20871;-94
2021/05/25 08:47:12;;;;;;;4.20;1.25;;;7.80;99.90;;;;;;6290720;22;20397;-96
2021/05/25 08:50:15;;;;;;;6.50;1.10;;;7.80;99.90;;;;;;6269127;22;20382;-95
2021/05/25 08:53:24;;;;;;;6.47;1.17;;;7.70;99.90;;;;;;6316533;22;20378;-96
2021/05/25 08:59:35;;;;;;;7.93;1.50;;;7.50;99.90;;;;;;6317467;22;20373;-96
2021/05/25 09:02:14;;;;;;;5.03;1.27;;;7.40;99.90;;;;;;6291389;22;20467;-96
2021/05/25 09:08:35;;;;;;;;;;;;;;;;;;;;;
2021/05/25 09:12:07;;;;;;;4.40;1.27;;;7.50;99.90;;;;;;6314312;22;20411;-95
2021/05/25 09:18:40;;;;;;;;;;;;;;;;;;;;;
2021/05/25 09:21:35;;;;;;;2.95;1.10;;;7.60;99.90;;;;;;6258556;23;20408;-93
2021/05/25 09:24:09;;;;;;;3.63;0.90;;;7.50;99.90;;;;;;6262977;23;20525;-93
2021/05/25 09:26:48;;;;;;;3.42;1.17;;;7.50;99.90;;;;;;6263607;23;20385;-94
2021/05/25 09:29:26;;;;;;;5.88;0.90;;;7.40;99.90;;;;;;6271223;22;20373;-94
2021/05/25 09:31:54;;;;;;;4.60;1.08;;;7.50;99.90;;;;;;6254497;23;20396;-92
2021/05/25 09:34:24;;;;;;;6.72;1.20;;;7.60;99.90;;;;;;6245844;23;20417;-95
2021/05/25 09:37:04;;;;;;;4.07;1.15;;;7.70;99.90;;;;;;6245922;23;20424;-93
2021/05/25 09:39:40;;;;;;;4.93;1.23;;;7.60;99.90;;;;;;6245662;23;20389;-94
2021/05/25 09:42:10;;;;;;;6.07;1.38;;;7.60;99.90;;;;;;6220785;23;20472;-94
2021/05/25 09:44:59;;;;;;;3.20;1.10;;;7.70;99.90;;;;;;6246372;23;20445;-93
2021/05/25 09:47:53;;;;;;;5.72;1.10;;;7.70;99.90;;;;;;6247957;23;20457;-94
2021/05/25 09:50:44;;;;;;;6.53;1.10;;;7.80;99.90;;;;;;6279086;22;20359;-92
2021/05/25 09:53:17;;;;;;;7.18;1.30;;;7.60;99.90;;;;;;6276643;22;20412;-93
2021/05/25 09:56:28;;;;;;;5.68;1.30;;;7.50;99.90;;;;;;6304090;22;20393;-94
2021/05/25 10:02:24;;;;;;;4.95;1.13;;;7.40;99.90;;;;;;6311312;22;20816;-96
2021/05/25 10:05:36;;;;;;;2.17;0.82;;;7.20;99.90;;;;;;6271339;22;20381;-94
2021/05/25 10:08:46;;;;;;;8.10;1.40;;;7.20;99.90;;;;;;6282708;22;20378;-95
2021/05/25 10:11:39;;;;;;;4.95;1.25;;;7.20;99.90;;;;;;6309873;22;20440;-96
2021/05/25 10:14:18;;;;;;;6.22;1.50;;;7.20;99.90;;;;;;6285817;22;20512;-96
2021/05/25 10:17:05;;;;;;;4.82;1.40;;;7.20;99.90;;;;;;6274678;22;20745;-94
2021/05/25 10:20:10;;;;;;;7.72;1.45;;;7.40;99.90;;;;;;6257787;22;20418;-94
2021/05/25 10:23:37;;;;;;;4.60;1.00;;;7.50;99.90;;;;;;6152268;23;20416;-94
2021/05/25 10:26:47;;;;;;;6.07;1.42;;;7.80;99.90;;;;;;6057464;23;20439;-96
2021/05/25 10:29:39;;;;;;;5.80;1.47;;;7.90;99.90;;;;;;6040159;23;20448;-94
2021/05/25 10:36:48;;;;;;;8.93;1.40;;;7.70;99.90;;;;;;6132470;23;20359;-95
2021/05/25 10:47:16;;;;;;;3.63;0.95;;;7.90;99.90;;;;;;6186252;22;21325;-95
2021/05/25 10:50:46;;;;;;;3.40;1.08;;;8.10;99.90;;;;;;6219205;23;20386;-96
2021/05/25 10:53:39;;;;;;;8.18;1.35;;;8.10;99.90;;;;;;6248027;23;20382;-95
2021/05/25 11:00:32;;;;;;;5.60;1.48;;;8.70;99.90;;;;;;6039316;23;20427;-95
2021/05/25 11:03:22;;;;;;;9.02;1.60;;;8.70;99.90;;;;;;5913098;24;20380;-95
2021/05/25 11:05:59;;;;;;;5.40;1.20;;;8.80;99.90;;;;;;5911258;24;20492;-96
2021/05/25 11:15:29;;;;;;;5.93;1.30;;;8.80;99.90;;;;;;6336208;22;20388;-95
2021/05/25 11:18:33;;;;;;;6.40;1.80;;;8.90;99.90;;;;;;6321507;22;20387;-95
2021/05/25 11:26:55;;;;;;;6.32;1.80;;;8.70;99.90;;;;;;6334631;22;20377;-96
2021/05/25 11:33:03;;;;;;;4.75;1.08;;;8.60;99.90;;;;;;6344345;22;20408;-96
2021/05/25 11:36:11;;;;;;;4.45;1.20;;;8.60;99.90;;;;;;6195192;23;20410;-96
2021/05/25 11:51:50;;;;;;;4.65;1.15;;;8.50;99.90;;;;;;6190259;23;20395;-96
2021/05/25 11:54:40;;;;;;;5.68;1.60;;;8.50;99.90;;;;;;6194133;23;20391;-95
2021/05/25 11:57:53;;;;;;;8.20;1.23;;;8.50;99.90;;;;;;6126368;23;20377;-94
2021/05/25 12:00:35;;;;;;;4.57;1.30;;;8.50;99.90;;;;;;6096652;23;20392;-95
2021/05/25 12:03:13;;;;;;;8.05;1.77;;;8.50;99.90;;;;;;6127587;23;20492;-95
2021/05/25 12:05:42;;;;;;;4.68;1.60;;;8.40;99.90;;;;;;6126917;23;20388;-95
2021/05/25 12:08:13;;;;;;;7.20;1.40;;;8.30;99.90;;;;;;6126717;23;20401;-94
2021/05/25 12:10:43;;;;;;;6.63;1.65;;;8.20;99.90;;;;;;6126178;23;20424;-94
2021/05/25 12:13:15;;;;;;;4.30;1.08;;;8.10;99.90;;;;;;6125526;23;20388;-94
2021/05/25 12:15:51;;;;;;;5.97;1.63;;;8.10;99.90;;;;;;6126188;23;20404;-93
2021/05/25 12:18:24;;;;;;;5.97;1.83;;;8.00;99.90;;;;;;6126555;23;20958;-93
2021/05/25 12:20:55;;;;;;;8.15;1.70;;;7.90;99.90;;;;;;6101783;23;20404;-95
2021/05/25 12:23:28;;;;;;;5.03;1.70;;;7.70;99.90;;;;;;6126764;23;20464;-94
2021/05/25 12:26:23;;;;;;;7.33;1.40;;;7.70;99.90;;;;;;6125865;23;20385;-95
2021/05/25 12:28:53;;;;;;;9.20;1.60;;;7.70;99.90;;;;;;6125672;23;20511;-94
2021/05/25 12:31:21;;;;;;;9.23;1.30;;;7.60;99.90;;;;;;6128443;23;20498;-93
2021/05/25 12:33:50;;;;;;;6.10;1.67;;;7.30;99.90;;;;;;6153482;23;20907;-94
2021/05/25 13:29:01;;;;;;;6.10;1.80;;;8.00;99.90;;;;;;6231704;22;21579;31
2021/05/25 14:01:36;;;;;;;8.57;1.63;;;7.70;99.90;;;;;;6319834;22;20392;-96
2021/05/25 14:05:18;;;;;;;;;;;;;;;;;;;;;
2021/05/25 14:14:46;;;;;;;7.37;2.00;;;7.50;99.90;;;;;;6338284;22;20383;-96
2021/05/25 14:32:09;;;;;;;8.10;1.90;;;7.60;99.90;;;;;;6164568;23;20389;-96
2021/05/25 14:34:59;;;;;;;8.23;1.80;;;7.60;99.90;;;;;;6232478;23;20385;-96
2021/05/25 16:03:55;;;;;;;4.13;1.30;;;8.60;99.90;;;;;;6355833;22;20407;-96
2021/05/25 16:19:25;;;;;;;5.03;1.40;;;11.10;99.90;;;;;;6272366;22;20388;-96
2021/05/25 16:49:37;;;;;;;4.53;1.35;;;10.10;99.90;;;;;;6263851;22;20775;-95
2021/05/25 19:30:49;;;;;;;6.68;2.85;;;4.60;99.90;;;;;;6297993;22;20382;-95
2021/05/25 20:32:52;;;;;;;7.88;2.42;;;4.50;99.90;;;;;;6269040;22;20460;-94
2021/05/25 20:39:29;;;;;;;6.32;2.38;;;4.50;99.90;;;;;;6280393;22;20904;-94
2021/05/25 20:42:10;;;;;;;8.02;2.80;;;4.50;99.90;;;;;;6321809;22;20396;-94
2021/05/25 20:44:44;;;;;;;7.22;2.67;;;4.30;99.90;;;;;;6354037;22;20364;-94
2021/05/25 20:48:06;;;;;;;9.50;2.80;;;4.30;99.90;;;;;;6334603;22;20393;-94
2021/05/25 20:51:18;;;;;;;5.80;2.50;;;4.30;99.90;;;;;;6218931;23;20388;-93
2021/05/25 20:57:53;;;;;;;8.25;2.70;;;4.20;99.90;;;;;;5961910;24;20406;-93
2021/05/25 21:04:39;;;;;;;8.35;2.58;;;4.40;99.90;;;;;;5880479;24;20454;-94
